sensor_id;sensor_type;location;lat;lon;timestamp;P1;durP1;ratioP1;P2;durP2;ratioP2
64560;SDS011;50960;46.838;16.838;2023-05-16T14:30:23;2.03;;;1.83;;
64560;SDS011;50960;46.838;16.838;2023-05-16T14:32:50;2.97;;;2.08;;
64560;SDS011;50960;46.838;16.838;2023-05-16T14:38:05;1.98;;;1.88;;
64560;SDS011;50960;46.838;16.838;2023-05-16T14:40:32;2.00;;;1.90;;
64560;SDS011;50960;46.838;16.838;2023-05-16T14:42:58;1.83;;;1.73;;
64560;SDS011;50960;46.838;16.838;2023-05-16T14:45:25;2.22;;;1.67;;
64560;SDS011;50960;46.838;16.838;2023-05-16T14:47:52;2.00;;;1.90;;
64560;SDS011;50960;46.838;16.838;2023-05-16T14:50:19;2.10;;;2.00;;
64560;SDS011;50960;46.838;16.838;2023-05-16T14:52:46;2.40;;;2.20;;
64560;SDS011;50960;46.838;16.838;2023-05-16T14:55:12;2.00;;;1.90;;
64560;SDS011;50960;46.838;16.838;2023-05-16T14:57:43;1.70;;;1.60;;
64560;SDS011;50960;46.838;16.838;2023-05-16T15:00:09;1.52;;;1.50;;
64560;SDS011;50960;46.838;16.838;2023-05-16T15:02:37;2.50;;;1.60;;
64560;SDS011;50960;46.838;16.838;2023-05-16T15:05:03;2.60;;;2.00;;
64560;SDS011;50960;46.838;16.838;2023-05-16T15:07:31;2.03;;;1.92;;
64560;SDS011;50960;46.838;16.838;2023-05-16T15:09:57;1.80;;;1.70;;
64560;SDS011;50960;46.838;16.838;2023-05-16T15:12:23;2.25;;;2.10;;
64560;SDS011;50960;46.838;16.838;2023-05-16T15:14:52;1.73;;;1.63;;
64560;SDS011;50960;46.838;16.838;2023-05-16T15:17:21;1.60;;;1.50;;
64560;SDS011;50960;46.838;16.838;2023-05-16T15:19:47;1.50;;;1.40;;
64560;SDS011;50960;46.838;16.838;2023-05-16T15:22:14;1.73;;;1.63;;
64560;SDS011;50960;46.838;16.838;2023-05-16T15:24:40;1.92;;;1.83;;
64560;SDS011;50960;46.838;16.838;2023-05-16T15:27:08;2.22;;;2.13;;
64560;SDS011;50960;46.838;16.838;2023-05-16T15:29:35;2.00;;;1.80;;
64560;SDS011;50960;46.838;16.838;2023-05-16T15:32:02;2.10;;;1.90;;
64560;SDS011;50960;46.838;16.838;2023-05-16T15:34:33;1.40;;;1.40;;
64560;SDS011;50960;46.838;16.838;2023-05-16T15:37:00;1.70;;;1.60;;
64560;SDS011;50960;46.838;16.838;2023-05-16T15:39:27;1.40;;;1.30;;
64560;SDS011;50960;46.838;16.838;2023-05-16T15:41:53;1.40;;;1.40;;
64560;SDS011;50960;46.838;16.838;2023-05-16T15:44:20;1.70;;;1.60;;
64560;SDS011;50960;46.838;16.838;2023-05-16T15:46:48;3.67;;;1.90;;
64560;SDS011;50960;46.838;16.838;2023-05-16T15:49:14;1.90;;;1.80;;
64560;SDS011;50960;46.838;16.838;2023-05-16T15:51:42;1.40;;;1.40;;
64560;SDS011;50960;46.838;16.838;2023-05-16T15:54:09;1.63;;;1.52;;
64560;SDS011;50960;46.838;16.838;2023-05-16T15:56:36;1.92;;;1.83;;
64560;SDS011;50960;46.838;16.838;2023-05-16T15:59:02;1.73;;;1.63;;
64560;SDS011;50960;46.838;16.838;2023-05-16T16:01:29;1.58;;;1.48;;
64560;SDS011;50960;46.838;16.838;2023-05-16T16:03:55;3.58;;;1.40;;
64560;SDS011;50960;46.838;16.838;2023-05-16T16:06:21;1.73;;;1.40;;
64560;SDS011;50960;46.838;16.838;2023-05-16T16:08:48;1.55;;;1.45;;
64560;SDS011;50960;46.838;16.838;2023-05-16T16:11:14;2.42;;;1.70;;
64560;SDS011;50960;46.838;16.838;2023-05-16T16:13:41;1.50;;;1.40;;
64560;SDS011;50960;46.838;16.838;2023-05-16T16:16:07;1.40;;;1.40;;
64560;SDS011;50960;46.838;16.838;2023-05-16T16:18:33;1.50;;;1.30;;
64560;SDS011;50960;46.838;16.838;2023-05-16T16:21:01;1.55;;;1.50;;
64560;SDS011;50960;46.838;16.838;2023-05-16T16:23:27;1.40;;;1.30;;
64560;SDS011;50960;46.838;16.838;2023-05-16T16:25:57;1.50;;;1.40;;
64560;SDS011;50960;46.838;16.838;2023-05-16T16:28:25;1.30;;;1.30;;
64560;SDS011;50960;46.838;16.838;2023-05-16T16:30:51;1.52;;;1.30;;
64560;SDS011;50960;46.838;16.838;2023-05-16T16:33:17;1.70;;;1.60;;
64560;SDS011;50960;46.838;16.838;2023-05-16T16:35:44;1.70;;;1.60;;
64560;SDS011;50960;46.838;16.838;2023-05-16T16:38:10;3.78;;;3.47;;
64560;SDS011;50960;46.838;16.838;2023-05-16T16:40:37;1.73;;;1.63;;
64560;SDS011;50960;46.838;16.838;2023-05-16T16:43:05;1.55;;;1.45;;
64560;SDS011;50960;46.838;16.838;2023-05-16T16:45:31;1.85;;;1.75;;
64560;SDS011;50960;46.838;16.838;2023-05-16T16:47:58;2.00;;;1.90;;
64560;SDS011;50960;46.838;16.838;2023-05-16T16:50:24;1.70;;;1.60;;
64560;SDS011;50960;46.838;16.838;2023-05-16T16:52:50;1.52;;;1.42;;
64560;SDS011;50960;46.838;16.838;2023-05-16T16:55:24;1.60;;;1.50;;
64560;SDS011;50960;46.838;16.838;2023-05-16T16:57:52;1.55;;;1.45;;
64560;SDS011;50960;46.838;16.838;2023-05-16T17:00:18;1.88;;;1.77;;
64560;SDS011;50960;46.838;16.838;2023-05-16T17:02:45;1.80;;;1.70;;
64560;SDS011;50960;46.838;16.838;2023-05-16T17:05:11;1.67;;;1.60;;
64560;SDS011;50960;46.838;16.838;2023-05-16T17:07:38;1.73;;;1.63;;
64560;SDS011;50960;46.838;16.838;2023-05-16T17:10:04;1.27;;;1.23;;
64560;SDS011;50960;46.838;16.838;2023-05-16T17:12:32;1.65;;;1.55;;
64560;SDS011;50960;46.838;16.838;2023-05-16T17:14:59;1.05;;;1.00;;
64560;SDS011;50960;46.838;16.838;2023-05-16T17:17:26;1.30;;;1.20;;
64560;SDS011;50960;46.838;16.838;2023-05-16T17:19:52;1.20;;;1.20;;
64560;SDS011;50960;46.838;16.838;2023-05-16T17:22:19;1.52;;;1.10;;
64560;SDS011;50960;46.838;16.838;2023-05-16T17:24:46;2.33;;;1.90;;
64560;SDS011;50960;46.838;16.838;2023-05-16T17:27:12;1.85;;;1.75;;
64560;SDS011;50960;46.838;16.838;2023-05-16T17:29:39;1.50;;;1.40;;
64560;SDS011;50960;46.838;16.838;2023-05-16T17:32:05;1.35;;;1.25;;
64560;SDS011;50960;46.838;16.838;2023-05-16T17:34:32;1.00;;;1.00;;
64560;SDS011;50960;46.838;16.838;2023-05-16T17:36:58;1.75;;;1.40;;
64560;SDS011;50960;46.838;16.838;2023-05-16T17:39:25;1.17;;;1.10;;
64560;SDS011;50960;46.838;16.838;2023-05-16T17:41:51;1.80;;;1.70;;
64560;SDS011;50960;46.838;16.838;2023-05-16T17:44:23;2.47;;;1.67;;
64560;SDS011;50960;46.838;16.838;2023-05-16T17:46:56;1.88;;;1.60;;
64560;SDS011;50960;46.838;16.838;2023-05-16T17:49:24;1.90;;;1.80;;
64560;SDS011;50960;46.838;16.838;2023-05-16T17:51:53;1.60;;;1.50;;
64560;SDS011;50960;46.838;16.838;2023-05-16T17:54:24;0.90;;;0.90;;
64560;SDS011;50960;46.838;16.838;2023-05-16T17:56:51;1.40;;;1.20;;
64560;SDS011;50960;46.838;16.838;2023-05-16T17:59:19;1.33;;;1.00;;
64560;SDS011;50960;46.838;16.838;2023-05-16T18:01:45;0.90;;;0.90;;
64560;SDS011;50960;46.838;16.838;2023-05-16T18:04:13;1.00;;;0.90;;
64560;SDS011;50960;46.838;16.838;2023-05-16T18:06:39;1.00;;;1.00;;
64560;SDS011;50960;46.838;16.838;2023-05-16T18:09:06;1.50;;;1.40;;
64560;SDS011;50960;46.838;16.838;2023-05-16T18:11:34;2.28;;;1.25;;
64560;SDS011;50960;46.838;16.838;2023-05-16T18:14:02;1.08;;;1.08;;
64560;SDS011;50960;46.838;16.838;2023-05-16T18:16:28;1.00;;;1.00;;
64560;SDS011;50960;46.838;16.838;2023-05-16T18:18:56;1.40;;;1.30;;
64560;SDS011;50960;46.838;16.838;2023-05-16T18:21:22;1.10;;;1.00;;
64560;SDS011;50960;46.838;16.838;2023-05-16T18:23:49;1.10;;;1.10;;
64560;SDS011;50960;46.838;16.838;2023-05-16T18:26:16;1.05;;;1.05;;
64560;SDS011;50960;46.838;16.838;2023-05-16T18:28:43;0.95;;;0.95;;
64560;SDS011;50960;46.838;16.838;2023-05-16T18:31:10;1.08;;;1.08;;
64560;SDS011;50960;46.838;16.838;2023-05-16T18:33:37;1.20;;;1.20;;
64560;SDS011;50960;46.838;16.838;2023-05-16T18:36:04;1.25;;;1.25;;
64560;SDS011;50960;46.838;16.838;2023-05-16T18:38:32;3.08;;;2.08;;
64560;SDS011;50960;46.838;16.838;2023-05-16T18:40:58;1.10;;;1.10;;
64560;SDS011;50960;46.838;16.838;2023-05-16T18:43:26;1.35;;;1.25;;
64560;SDS011;50960;46.838;16.838;2023-05-16T18:45:53;1.00;;;1.00;;
64560;SDS011;50960;46.838;16.838;2023-05-16T18:48:19;1.10;;;1.00;;
64560;SDS011;50960;46.838;16.838;2023-05-16T18:50:46;1.27;;;1.00;;
64560;SDS011;50960;46.838;16.838;2023-05-16T18:53:13;1.10;;;1.00;;
64560;SDS011;50960;46.838;16.838;2023-05-16T18:55:40;1.40;;;1.30;;
64560;SDS011;50960;46.838;16.838;2023-05-16T18:58:07;1.10;;;1.10;;
64560;SDS011;50960;46.838;16.838;2023-05-16T19:00:33;1.30;;;1.25;;
64560;SDS011;50960;46.838;16.838;2023-05-16T19:03:00;1.30;;;1.30;;
64560;SDS011;50960;46.838;16.838;2023-05-16T19:05:26;1.58;;;1.40;;
64560;SDS011;50960;46.838;16.838;2023-05-16T19:07:53;1.92;;;1.40;;
64560;SDS011;50960;46.838;16.838;2023-05-16T19:10:19;1.10;;;1.10;;
64560;SDS011;50960;46.838;16.838;2023-05-16T19:12:46;1.17;;;1.10;;
64560;SDS011;50960;46.838;16.838;2023-05-16T19:15:13;1.20;;;1.20;;
64560;SDS011;50960;46.838;16.838;2023-05-16T19:17:41;1.85;;;1.20;;
64560;SDS011;50960;46.838;16.838;2023-05-16T19:20:07;1.20;;;1.20;;
64560;SDS011;50960;46.838;16.838;2023-05-16T19:22:35;1.13;;;1.13;;
64560;SDS011;50960;46.838;16.838;2023-05-16T19:25:02;1.30;;;1.30;;
64560;SDS011;50960;46.838;16.838;2023-05-16T19:27:29;1.52;;;1.42;;
64560;SDS011;50960;46.838;16.838;2023-05-16T19:29:55;1.90;;;1.80;;
64560;SDS011;50960;46.838;16.838;2023-05-16T19:32:22;1.85;;;1.75;;
64560;SDS011;50960;46.838;16.838;2023-05-16T19:34:48;1.45;;;1.45;;
64560;SDS011;50960;46.838;16.838;2023-05-16T19:37:14;1.95;;;1.85;;
64560;SDS011;50960;46.838;16.838;2023-05-16T19:39:41;2.00;;;1.90;;
64560;SDS011;50960;46.838;16.838;2023-05-16T19:42:07;2.10;;;2.00;;
64560;SDS011;50960;46.838;16.838;2023-05-16T19:44:33;2.10;;;2.00;;
64560;SDS011;50960;46.838;16.838;2023-05-16T19:47:00;2.33;;;2.20;;
64560;SDS011;50960;46.838;16.838;2023-05-16T19:49:26;2.20;;;2.10;;
64560;SDS011;50960;46.838;16.838;2023-05-16T19:51:52;2.30;;;2.20;;
64560;SDS011;50960;46.838;16.838;2023-05-16T19:54:19;2.67;;;2.47;;
64560;SDS011;50960;46.838;16.838;2023-05-16T19:56:45;2.58;;;2.38;;
64560;SDS011;50960;46.838;16.838;2023-05-16T19:59:12;2.40;;;2.30;;
64560;SDS011;50960;46.838;16.838;2023-05-16T20:01:38;2.28;;;2.17;;
64560;SDS011;50960;46.838;16.838;2023-05-16T20:04:05;3.20;;;2.92;;
64560;SDS011;50960;46.838;16.838;2023-05-16T20:06:32;3.10;;;2.90;;
64560;SDS011;50960;46.838;16.838;2023-05-16T20:08:58;3.60;;;3.30;;
64560;SDS011;50960;46.838;16.838;2023-05-16T20:11:24;3.33;;;3.13;;
64560;SDS011;50960;46.838;16.838;2023-05-16T20:13:51;3.50;;;3.20;;
64560;SDS011;50960;46.838;16.838;2023-05-16T20:16:20;3.55;;;3.28;;
64560;SDS011;50960;46.838;16.838;2023-05-16T20:18:47;3.60;;;3.40;;
64560;SDS011;50960;46.838;16.838;2023-05-16T20:21:14;3.92;;;3.65;;
64560;SDS011;50960;46.838;16.838;2023-05-16T20:23:40;4.15;;;3.85;;
64560;SDS011;50960;46.838;16.838;2023-05-16T20:26:07;5.05;;;3.92;;
64560;SDS011;50960;46.838;16.838;2023-05-16T20:28:33;4.25;;;3.95;;
64560;SDS011;50960;46.838;16.838;2023-05-16T20:30:59;4.70;;;4.30;;
64560;SDS011;50960;46.838;16.838;2023-05-16T20:33:26;4.30;;;4.00;;
64560;SDS011;50960;46.838;16.838;2023-05-16T20:35:52;4.57;;;4.18;;
64560;SDS011;50960;46.838;16.838;2023-05-16T20:38:19;4.60;;;4.20;;
64560;SDS011;50960;46.838;16.838;2023-05-16T20:40:45;4.43;;;4.10;;
